Bidar Air Force Station

Jump to: basic info | weather | frequencies | runways | comments

Related pages: nearby airports | nearby navaids | notams | map

Basic information (top)

Codes: VOBR
Location: lon 17.908100, lat 77.487099, elev 2,178 ft / 664 m msl
Status: medium_airport

Weather (top)

Current conditions for Begumpet Airport 62nm (116km) ESE (rec'd 2014/07/31 02:40Z):

VOHY 310240Z 28013KT 4000 HZ SCT010 SCT015 OVC080 FEW030CB 24/20 Q1007 NOSIG

Airport forecast for Begumpet Airport 62nm (116km) ESE (rec'd 2014/07/22 06:00Z):

TAF VOHY 220300Z 2206/2215 27015G25KT 6000 FEW015 SCT020 BKN100 
      TEMPO 2209/2215 3000 RA SHRA FEW030TCU OVC080

Frequencies (top)

Verify before use: may be inaccurate or out of date.

APP: 122.85 MHz ()
Twr: 123.5 MHz ()

Runways (top)

02/20: 6,955 x 148 ft (2,120 x 45 m) — paved — lighted

08/26: 6,798 x 150 ft (2,072 x 46 m) — paved — lighted

Latest comments (top)

939814-l: stendra [read]

More... (top)

See also NOTAMs and nearby airports and navaids, or visit the Bidar Air Force Station page at the main OurAirports website..